South San Pedro, Texas
Current Conditions -  °F | °C
As of 11:55 AM on Tuesday 21 Oct 2014 (Local Time) from KRBO Reporting Station
Clear Clear  
Wind Chill: 80°   Ceiling: Unl
Heat Index: 84°   Visibility: 10mi
Dew Point: 71°   Wind: 10mph
Humidity: 73%   Direction: 60°ENE
Pressure: 30.02"   Gusts: NA
Location:  27.7757°N, 97.7554°W
Report Text: KRBO 211655Z AUTO 06009KT 10SM CLR 27/22 A3002 RMK AO2 T02690216
Loading
Personal Weather Stations






























Interactive Weather Map
Tropical Storm Tracking
New forecast layout! Learn more

10-Day Weather Forecast

Advertisements
Track Severe Weather on mobile